createdAt,value
2023-05-05T00:01:06.789Z,97.23
2023-05-05T00:03:38.280Z,98.05
2023-05-05T00:06:06.829Z,98.70
2023-05-05T00:08:35.305Z,98.84
2023-05-05T00:11:03.448Z,97.90
2023-05-05T00:13:31.868Z,98.24
2023-05-05T00:16:00.400Z,96.45
2023-05-05T00:18:29.585Z,95.53
2023-05-05T00:20:57.913Z,95.86
2023-05-05T00:23:26.226Z,96.67
2023-05-05T00:25:54.893Z,97.99
2023-05-05T00:28:23.240Z,98.33
2023-05-05T00:30:51.461Z,98.77
2023-05-05T00:33:19.744Z,99.97
2023-05-05T00:35:48.332Z,100.00
2023-05-05T00:38:17.007Z,100.00
2023-05-05T00:40:45.149Z,100.00
2023-05-05T00:43:13.359Z,100.00
2023-05-05T00:45:44.432Z,100.00
2023-05-05T00:48:12.809Z,100.00
2023-05-05T00:50:44.479Z,100.00
2023-05-05T00:53:13.858Z,100.00
2023-05-05T00:55:42.242Z,100.00
2023-05-05T00:58:11.421Z,100.00
2023-05-05T01:00:39.659Z,100.00
2023-05-05T01:03:08.348Z,100.00
2023-05-05T01:05:55.426Z,100.00
2023-05-05T01:08:39.276Z,100.00
2023-05-05T01:11:35.494Z,100.00
2023-05-05T01:14:33.051Z,100.00
2023-05-05T01:17:09.018Z,100.00
2023-05-05T01:19:51.132Z,100.00
2023-05-05T01:22:24.926Z,100.00
2023-05-05T01:25:08.867Z,100.00
2023-05-05T01:28:04.540Z,100.00
2023-05-05T01:30:44.992Z,100.00
2023-05-05T01:33:19.093Z,100.00
2023-05-05T01:35:53.950Z,100.00
2023-05-05T01:38:26.866Z,100.00
2023-05-05T01:41:03.909Z,100.00
2023-05-05T01:43:35.930Z,100.00
2023-05-05T01:46:06.839Z,100.00
2023-05-05T01:48:37.157Z,100.00
2023-05-05T01:51:06.609Z,100.00
2023-05-05T01:53:36.515Z,100.00
2023-05-05T01:56:06.470Z,100.00
2023-05-05T01:58:36.264Z,100.00
2023-05-05T02:01:06.282Z,100.00
2023-05-05T02:03:37.840Z,100.00
2023-05-05T02:06:08.464Z,100.00
2023-05-05T02:08:38.162Z,99.79
2023-05-05T02:11:08.871Z,99.28
2023-05-05T02:13:42.748Z,97.77
2023-05-05T02:16:18.807Z,96.74
2023-05-05T02:18:47.632Z,97.36
2023-05-05T02:21:18.164Z,97.75
2023-05-05T02:23:52.020Z,98.20
2023-05-05T02:26:23.239Z,98.98
2023-05-05T02:29:10.092Z,99.26
2023-05-05T02:31:51.006Z,99.55
2023-05-05T02:34:28.226Z,99.95
2023-05-05T02:37:00.973Z,99.83
2023-05-05T02:39:40.835Z,98.84
2023-05-05T02:42:16.573Z,98.95
2023-05-05T02:44:46.548Z,98.10
2023-05-05T02:47:15.088Z,98.50
2023-05-05T02:49:43.842Z,98.24
2023-05-05T02:52:12.018Z,99.45
2023-05-05T02:54:40.827Z,99.98
2023-05-05T02:57:16.544Z,100.00
2023-05-05T02:59:56.713Z,99.29
2023-05-05T03:02:44.897Z,99.43
2023-05-05T03:05:19.549Z,100.00
2023-05-05T03:08:02.317Z,99.96
2023-05-05T03:10:47.070Z,98.60
2023-05-05T03:13:18.923Z,98.43
2023-05-05T03:15:49.698Z,97.96
2023-05-05T03:18:22.655Z,97.37
2023-05-05T03:20:57.384Z,95.37
2023-05-05T03:23:26.365Z,96.23
2023-05-05T03:25:58.016Z,96.96
2023-05-05T03:28:32.753Z,96.93
2023-05-05T03:31:03.900Z,97.34
2023-05-05T03:33:32.430Z,97.25
2023-05-05T03:36:01.699Z,97.74
2023-05-05T03:38:30.034Z,95.95
2023-05-05T03:41:03.264Z,94.72
2023-05-05T03:43:32.223Z,94.17
2023-05-05T03:46:00.693Z,96.11
2023-05-05T03:48:29.447Z,95.61
2023-05-05T03:50:57.931Z,93.72
2023-05-05T03:53:26.734Z,93.85
2023-05-05T03:55:55.892Z,93.94
2023-05-05T03:58:24.272Z,94.42
2023-05-05T04:00:52.878Z,94.95
2023-05-05T04:03:21.804Z,95.74
2023-05-05T04:05:51.207Z,96.92
2023-05-05T04:08:19.862Z,96.70
2023-05-05T04:10:48.214Z,96.19
2023-05-05T04:13:16.980Z,96.00
2023-05-05T04:15:46.589Z,95.62
2023-05-05T04:18:15.670Z,96.27
2023-05-05T04:20:44.635Z,97.27
2023-05-05T04:23:13.207Z,97.84
2023-05-05T04:25:41.749Z,97.25
2023-05-05T04:28:10.984Z,97.30
2023-05-05T04:30:39.660Z,96.73
2023-05-05T04:33:08.187Z,95.69
2023-05-05T04:35:36.524Z,96.52
2023-05-05T04:38:04.992Z,95.25
2023-05-05T04:40:33.422Z,95.62
2023-05-05T04:43:02.162Z,95.94
2023-05-05T04:45:30.698Z,96.70
2023-05-05T04:47:59.294Z,96.96
2023-05-05T04:50:27.733Z,96.76
2023-05-05T04:52:56.580Z,96.22
2023-05-05T04:55:25.629Z,95.78
2023-05-05T04:57:54.059Z,95.18
2023-05-05T05:00:23.519Z,93.53
2023-05-05T05:02:52.727Z,92.36
2023-05-05T05:05:21.677Z,90.18
2023-05-05T05:07:50.115Z,89.09
2023-05-05T05:10:19.229Z,88.95
2023-05-05T05:12:48.755Z,85.89
2023-05-05T05:15:17.088Z,85.48
2023-05-05T05:17:45.825Z,85.69
2023-05-05T05:20:14.265Z,85.50
2023-05-05T05:22:42.504Z,85.41
2023-05-05T05:25:14.184Z,84.61
2023-05-05T05:27:43.034Z,82.19
2023-05-05T05:30:11.893Z,80.59
2023-05-05T05:32:40.209Z,78.37
2023-05-05T05:35:09.167Z,76.84
2023-05-05T05:37:37.672Z,76.34
2023-05-05T05:40:07.530Z,76.98
2023-05-05T05:42:36.245Z,76.94
2023-05-05T05:45:06.414Z,72.83
2023-05-05T05:47:35.806Z,70.12
2023-05-05T05:50:05.238Z,70.85
2023-05-05T05:52:33.908Z,68.97
2023-05-05T05:55:03.017Z,69.80
2023-05-05T05:57:31.179Z,66.70
2023-05-05T06:00:01.793Z,68.06
2023-05-05T06:02:40.088Z,67.12
2023-05-05T06:05:10.668Z,65.30
2023-05-05T06:07:39.024Z,64.34
2023-05-05T06:10:25.872Z,64.08
2023-05-05T06:12:58.883Z,63.04
2023-05-05T06:15:27.690Z,61.86
2023-05-05T06:17:56.510Z,62.00
2023-05-05T06:20:25.149Z,60.30
2023-05-05T06:22:53.439Z,61.38
2023-05-05T06:25:22.634Z,63.17
2023-05-05T06:27:51.721Z,62.41
2023-05-05T06:30:20.103Z,59.51
2023-05-05T06:32:48.271Z,58.38
2023-05-05T06:35:16.575Z,59.23
2023-05-05T06:37:44.851Z,60.17
2023-05-05T06:40:13.255Z,61.37
2023-05-05T06:42:41.840Z,62.25
2023-05-05T06:45:12.841Z,61.60
2023-05-05T06:55:19.208Z,59.43
2023-05-05T06:57:47.428Z,60.38
2023-05-05T07:00:17.369Z,59.24
2023-05-05T07:02:47.725Z,59.18
2023-05-05T07:05:17.009Z,58.13
2023-05-05T07:07:53.183Z,58.49
2023-05-05T07:10:23.185Z,60.05
2023-05-05T07:12:52.600Z,60.32
2023-05-05T07:15:28.564Z,60.33
2023-05-05T07:17:58.195Z,60.03
2023-05-05T07:20:26.843Z,60.36
2023-05-05T07:22:55.499Z,61.16
2023-05-05T07:25:23.759Z,60.67
2023-05-05T07:27:51.976Z,59.90
2023-05-05T07:30:21.026Z,58.10
2023-05-05T07:32:50.008Z,58.06
2023-05-05T07:35:18.518Z,58.97
2023-05-05T07:37:47.186Z,59.67
2023-05-05T07:40:16.588Z,60.52
2023-05-05T07:42:45.032Z,61.36
2023-05-05T07:45:13.451Z,59.95
2023-05-05T07:47:42.015Z,57.70
2023-05-05T07:50:11.144Z,53.65
2023-05-05T07:55:10.933Z,52.74
2023-05-05T07:57:39.732Z,50.30
2023-05-05T08:00:09.779Z,50.29
2023-05-05T08:02:41.652Z,50.63
2023-05-05T08:05:10.268Z,50.76
2023-05-05T08:07:41.785Z,51.81
2023-05-05T08:10:12.229Z,53.19
2023-05-05T08:12:40.700Z,54.43
2023-05-05T08:15:10.190Z,55.97
2023-05-05T08:17:50.410Z,56.58
2023-05-05T08:20:20.593Z,54.57
2023-05-05T08:22:50.041Z,54.13
2023-05-05T08:25:18.271Z,54.24
2023-05-05T08:27:46.915Z,53.60
2023-05-05T08:30:17.277Z,54.08
2023-05-05T08:32:45.792Z,53.35
2023-05-05T08:35:14.134Z,53.31
2023-05-05T08:37:42.703Z,53.70
2023-05-05T08:40:15.068Z,54.21
2023-05-05T08:42:46.049Z,54.58
2023-05-05T08:45:14.357Z,55.09
2023-05-05T08:47:43.535Z,56.00
2023-05-05T08:50:12.613Z,57.02
2023-05-05T08:52:46.083Z,57.39
2023-05-05T08:55:28.498Z,57.12
2023-05-05T08:57:58.410Z,55.78
2023-05-05T09:00:27.901Z,54.47
2023-05-05T09:03:00.329Z,52.25
2023-05-05T09:05:28.856Z,50.76
2023-05-05T09:07:57.713Z,50.74
2023-05-05T09:10:29.880Z,48.89
2023-05-05T09:12:58.188Z,48.18
2023-05-05T09:15:28.454Z,47.96
2023-05-05T09:18:01.679Z,46.68
2023-05-05T09:20:38.265Z,48.25
2023-05-05T09:23:10.973Z,48.69
2023-05-05T09:25:40.046Z,49.89
2023-05-05T09:28:13.053Z,51.37
2023-05-05T09:30:43.846Z,51.29
2023-05-05T09:33:13.434Z,52.01
2023-05-05T09:35:56.062Z,52.39
2023-05-05T09:38:25.197Z,51.08
2023-05-05T09:40:54.382Z,49.96
2023-05-05T09:43:23.984Z,50.42
2023-05-05T09:45:52.320Z,49.97
2023-05-05T09:48:32.317Z,48.32
2023-05-05T09:51:00.748Z,48.34
2023-05-05T09:53:39.942Z,49.08
2023-05-05T09:56:09.195Z,49.51
2023-05-05T09:58:37.867Z,49.75
2023-05-05T10:01:06.220Z,51.21
2023-05-05T10:03:51.157Z,51.75
2023-05-05T10:06:19.391Z,51.66
2023-05-05T10:09:01.635Z,51.96
2023-05-05T10:11:30.443Z,51.41
2023-05-05T10:13:58.903Z,50.81
2023-05-05T10:16:30.372Z,48.69
2023-05-05T10:19:03.125Z,47.77
2023-05-05T10:21:42.038Z,47.27
2023-05-05T10:24:16.946Z,47.87
2023-05-05T10:26:46.841Z,44.72
2023-05-05T10:29:29.261Z,46.52
2023-05-05T10:32:27.164Z,46.26
2023-05-05T10:34:59.832Z,46.91
2023-05-05T10:37:29.708Z,47.32
2023-05-05T10:39:58.907Z,45.21
2023-05-05T10:42:28.036Z,46.79
2023-05-05T10:44:56.329Z,46.75
2023-05-05T10:47:27.441Z,46.46
2023-05-05T10:50:29.697Z,47.03
2023-05-05T10:53:11.180Z,46.14
2023-05-05T10:55:52.472Z,45.84
2023-05-05T10:58:46.960Z,45.71
2023-05-05T11:01:36.561Z,45.73
2023-05-05T11:04:24.246Z,44.95
2023-05-05T11:07:14.703Z,46.78
2023-05-05T11:10:03.021Z,46.96
2023-05-05T11:12:34.079Z,46.63
2023-05-05T11:15:28.678Z,47.02
2023-05-05T11:18:05.892Z,46.80
2023-05-05T11:20:35.614Z,46.54
2023-05-05T11:23:03.788Z,45.62
2023-05-05T11:25:35.479Z,45.02
2023-05-05T11:28:08.536Z,44.15
2023-05-05T11:30:57.760Z,43.47
2023-05-05T11:33:32.021Z,43.46
2023-05-05T11:36:06.459Z,41.96
2023-05-05T11:38:52.680Z,42.02
2023-05-05T11:41:40.057Z,41.65
2023-05-05T11:44:19.148Z,42.92
2023-05-05T11:46:53.245Z,43.08
2023-05-05T11:49:34.639Z,42.34
2023-05-05T11:52:05.345Z,41.51
2023-05-05T11:54:36.328Z,40.46
2023-05-05T11:57:07.277Z,40.67
2023-05-05T11:59:37.672Z,40.25
2023-05-05T12:02:05.972Z,39.95
2023-05-05T12:04:40.215Z,39.94
2023-05-05T12:07:15.491Z,39.88
2023-05-05T12:09:45.849Z,40.04
2023-05-05T12:12:14.740Z,38.65
2023-05-05T12:14:46.292Z,37.79
2023-05-05T12:17:14.512Z,38.07
2023-05-05T12:19:53.535Z,38.54
2023-05-05T12:22:26.514Z,38.73
2023-05-05T12:25:04.238Z,37.97
2023-05-05T12:27:32.912Z,38.00
2023-05-05T12:30:13.340Z,38.98
2023-05-05T12:32:41.862Z,38.78
2023-05-05T12:35:10.932Z,38.79
2023-05-05T12:37:39.829Z,39.25
2023-05-05T12:40:28.326Z,39.65
2023-05-05T12:42:56.861Z,40.47
2023-05-05T12:45:25.213Z,42.75
2023-05-05T12:47:53.487Z,42.59
2023-05-05T12:50:31.954Z,42.18
2023-05-05T12:53:00.089Z,41.68
2023-05-05T12:55:40.094Z,41.07
2023-05-05T12:58:08.342Z,41.65
2023-05-05T13:00:36.821Z,40.37
2023-05-05T13:03:06.495Z,39.43
2023-05-05T13:05:41.202Z,40.51
2023-05-05T13:08:09.432Z,41.41
2023-05-05T13:10:38.072Z,41.10
2023-05-05T13:13:06.146Z,40.92
2023-05-05T13:15:34.756Z,41.90
2023-05-05T13:18:03.300Z,40.82
2023-05-05T13:20:31.753Z,41.83
2023-05-05T13:22:59.949Z,39.74
2023-05-05T13:25:28.422Z,39.64
2023-05-05T13:27:56.752Z,39.63
2023-05-05T13:30:24.968Z,40.08
2023-05-05T13:32:53.157Z,39.44
2023-05-05T13:35:21.669Z,39.77
2023-05-05T13:37:50.001Z,40.21
2023-05-05T13:40:18.444Z,40.24
2023-05-05T13:42:47.075Z,40.46
2023-05-05T13:45:17.455Z,40.22
2023-05-05T13:47:45.852Z,40.28
2023-05-05T13:50:14.475Z,40.87
2023-05-05T13:52:42.699Z,39.92
2023-05-05T13:55:11.249Z,40.28
2023-05-05T13:57:39.510Z,39.32
2023-05-05T14:00:09.185Z,39.82
2023-05-05T14:02:37.437Z,38.72
2023-05-05T14:05:06.459Z,39.10
2023-05-05T14:07:34.602Z,40.11
2023-05-05T14:10:03.073Z,39.99
2023-05-05T14:12:31.275Z,40.18
2023-05-05T14:14:59.423Z,40.41
2023-05-05T14:17:27.559Z,39.48
2023-05-05T14:19:55.770Z,40.17
2023-05-05T14:22:24.442Z,40.15
2023-05-05T14:24:52.719Z,39.88
2023-05-05T14:27:20.815Z,39.32
2023-05-05T14:29:49.109Z,38.50
2023-05-05T14:32:17.473Z,37.61
2023-05-05T14:34:46.719Z,37.59
2023-05-05T14:37:16.500Z,37.59
2023-05-05T14:39:44.641Z,38.31
2023-05-05T14:42:12.881Z,39.12
2023-05-05T14:44:41.519Z,38.47
2023-05-05T14:47:09.685Z,37.76
2023-05-05T14:49:38.103Z,38.62
2023-05-05T14:52:06.224Z,39.27
2023-05-05T14:54:34.372Z,39.92
2023-05-05T14:57:02.806Z,40.31
2023-05-05T14:59:31.037Z,39.66
2023-05-05T15:01:59.396Z,40.26
2023-05-05T15:04:27.846Z,39.51
2023-05-05T15:06:56.656Z,40.28
2023-05-05T15:09:25.098Z,41.44
2023-05-05T15:11:53.285Z,41.59
2023-05-05T15:14:21.302Z,42.02
2023-05-05T15:16:49.420Z,41.96
2023-05-05T15:19:17.524Z,42.12
2023-05-05T15:21:45.564Z,41.34
2023-05-05T15:24:13.597Z,41.47
2023-05-05T15:26:41.724Z,41.16
2023-05-05T15:29:10.104Z,41.37
2023-05-05T15:31:38.258Z,41.19
2023-05-05T15:34:06.463Z,41.99
2023-05-05T15:36:34.805Z,42.49
2023-05-05T15:39:03.026Z,42.38
2023-05-05T15:41:34.498Z,42.67
2023-05-05T15:44:04.528Z,42.77
2023-05-05T15:46:35.646Z,42.96
2023-05-05T15:49:04.091Z,42.98
2023-05-05T15:51:32.376Z,43.14
2023-05-05T15:54:00.665Z,42.45
2023-05-05T15:56:29.448Z,42.89
2023-05-05T15:58:57.640Z,43.00
2023-05-05T16:01:25.960Z,43.32
2023-05-05T16:03:54.116Z,43.60
2023-05-05T16:06:22.371Z,44.56
2023-05-05T16:08:51.750Z,44.53
2023-05-05T16:11:22.424Z,44.45
2023-05-05T16:13:50.895Z,45.02
2023-05-05T16:16:19.300Z,45.69
2023-05-05T16:18:48.381Z,46.65
2023-05-05T16:21:16.884Z,47.30
2023-05-05T16:23:45.034Z,47.60
2023-05-05T16:26:13.408Z,48.35
2023-05-05T16:28:41.434Z,48.96
2023-05-05T16:31:10.927Z,49.25
2023-05-05T16:33:41.256Z,49.91
2023-05-05T16:36:13.087Z,50.01
2023-05-05T16:38:41.864Z,50.30
2023-05-05T16:41:11.452Z,50.76
2023-05-05T16:43:39.757Z,50.68
2023-05-05T16:46:08.008Z,51.12
2023-05-05T16:48:36.139Z,51.66
2023-05-05T16:51:04.159Z,52.08
2023-05-05T16:53:32.364Z,51.85
2023-05-05T16:56:00.730Z,52.35
2023-05-05T16:58:28.985Z,52.56
2023-05-05T17:00:57.293Z,52.47
2023-05-05T17:03:25.371Z,52.96
2023-05-05T17:05:53.908Z,53.15
2023-05-05T17:08:22.221Z,53.78
2023-05-05T17:10:50.568Z,53.97
2023-05-05T17:13:19.378Z,54.35
2023-05-05T17:15:47.745Z,54.37
2023-05-05T17:18:16.271Z,55.37
2023-05-05T17:20:44.539Z,55.35
2023-05-05T17:23:12.505Z,55.16
2023-05-05T17:25:40.630Z,55.35
2023-05-05T17:28:08.964Z,55.84
2023-05-05T17:30:37.870Z,55.64
2023-05-05T17:33:06.328Z,56.31
2023-05-05T17:35:34.760Z,56.25
2023-05-05T17:38:03.101Z,56.65
2023-05-05T17:40:31.275Z,56.96
2023-05-05T17:42:59.493Z,57.60
2023-05-05T17:45:27.699Z,58.16
2023-05-05T17:47:56.079Z,58.85
2023-05-05T17:50:24.711Z,60.04
2023-05-05T17:52:52.873Z,60.52
2023-05-05T17:55:21.165Z,61.37
2023-05-05T17:57:49.364Z,62.11
2023-05-05T18:00:18.477Z,62.32
2023-05-05T18:02:46.997Z,62.72
2023-05-05T18:05:15.495Z,63.43
2023-05-05T18:07:43.796Z,63.83
2023-05-05T18:10:12.249Z,64.35
2023-05-05T18:12:40.516Z,63.94
2023-05-05T18:15:09.621Z,64.63
2023-05-05T18:17:38.089Z,65.46
2023-05-05T18:20:07.434Z,64.10
2023-05-05T18:22:36.028Z,65.58
2023-05-05T18:25:07.160Z,65.78
2023-05-05T18:27:36.177Z,66.74
2023-05-05T18:30:05.243Z,67.23
2023-05-05T18:32:34.017Z,66.74
2023-05-05T18:35:02.112Z,68.35
2023-05-05T18:37:30.239Z,68.92
2023-05-05T18:39:58.358Z,69.59
2023-05-05T18:42:27.156Z,70.09
2023-05-05T18:44:55.455Z,71.85
2023-05-05T18:47:23.732Z,72.48
2023-05-05T18:49:51.834Z,72.88
2023-05-05T18:52:20.080Z,73.37
2023-05-05T18:54:48.642Z,73.63
2023-05-05T18:57:16.957Z,73.12
2023-05-05T18:59:45.412Z,70.05
2023-05-05T19:02:13.617Z,69.65
2023-05-05T19:04:42.335Z,69.94
2023-05-05T19:07:14.504Z,70.95
2023-05-05T19:09:49.218Z,72.84
2023-05-05T19:12:17.458Z,73.63
2023-05-05T19:14:45.619Z,74.94
2023-05-05T19:17:13.724Z,75.34
2023-05-05T19:19:41.864Z,72.92
2023-05-05T19:22:10.001Z,74.77
2023-05-05T19:24:38.009Z,74.85
2023-05-05T19:27:08.359Z,72.17
2023-05-05T19:29:36.549Z,72.90
2023-05-05T19:32:05.173Z,74.25
2023-05-05T19:34:33.592Z,72.03
2023-05-05T19:37:01.696Z,71.70
2023-05-05T19:39:29.837Z,73.61
2023-05-05T19:41:58.026Z,76.10
2023-05-05T19:44:26.081Z,76.31
2023-05-05T19:46:54.406Z,77.53
2023-05-05T19:49:22.635Z,75.74
2023-05-05T19:51:52.130Z,74.63
2023-05-05T19:54:21.458Z,76.01
2023-05-05T19:56:49.969Z,78.17
2023-05-05T19:59:18.311Z,79.13
2023-05-05T20:01:46.765Z,79.64
2023-05-05T20:04:15.603Z,77.14
2023-05-05T20:06:43.796Z,75.73
2023-05-05T20:09:12.236Z,76.99
2023-05-05T20:11:40.529Z,76.84
2023-05-05T20:14:08.896Z,75.55
2023-05-05T20:16:37.409Z,75.85
2023-05-05T20:19:05.897Z,77.47
2023-05-05T20:21:35.268Z,78.03
2023-05-05T20:24:03.551Z,78.32
2023-05-05T20:26:32.152Z,78.22
2023-05-05T20:29:00.296Z,78.20
2023-05-05T20:31:28.675Z,77.16
2023-05-05T20:33:57.081Z,79.35
2023-05-05T20:36:26.847Z,78.94
2023-05-05T20:38:55.064Z,77.96
2023-05-05T20:41:23.351Z,78.70
2023-05-05T20:43:51.455Z,79.37
2023-05-05T20:46:19.599Z,80.08
2023-05-05T20:48:47.921Z,80.67
2023-05-05T20:51:16.259Z,81.14
2023-05-05T20:53:44.739Z,81.58
2023-05-05T20:56:12.941Z,82.23
2023-05-05T20:58:41.300Z,82.72
2023-05-05T21:01:09.383Z,83.47
2023-05-05T21:03:37.666Z,82.95
2023-05-05T21:06:06.123Z,83.28
2023-05-05T21:08:34.412Z,83.43
2023-05-05T21:11:03.394Z,84.29
2023-05-05T21:13:32.139Z,84.42
2023-05-05T21:16:00.367Z,84.40
2023-05-05T21:18:28.658Z,84.11
2023-05-05T21:20:56.823Z,84.05
2023-05-05T21:23:24.980Z,84.60
2023-05-05T21:25:53.105Z,84.97
2023-05-05T21:28:21.238Z,84.27
2023-05-05T21:31:10.197Z,83.83
2023-05-05T21:33:39.183Z,83.90
2023-05-05T21:36:07.613Z,84.21
2023-05-05T21:38:36.058Z,83.38
2023-05-05T21:41:04.240Z,82.71
2023-05-05T21:43:32.468Z,81.34
2023-05-05T21:46:02.853Z,80.01
2023-05-05T21:48:31.568Z,80.57
2023-05-05T21:50:59.938Z,80.60
2023-05-05T21:53:28.070Z,80.44
2023-05-05T21:55:56.304Z,80.81
2023-05-05T21:58:25.373Z,81.46
2023-05-05T22:00:54.062Z,80.52
2023-05-05T22:03:22.416Z,80.35
2023-05-05T22:05:51.275Z,79.98
2023-05-05T22:08:19.821Z,80.34
2023-05-05T22:10:48.087Z,80.50
2023-05-05T22:13:16.285Z,80.23
2023-05-05T22:15:47.099Z,81.11
2023-05-05T22:18:16.067Z,80.52
2023-05-05T22:20:44.440Z,79.94
2023-05-05T22:23:14.148Z,79.95
2023-05-05T22:25:42.412Z,79.95
2023-05-05T22:28:11.766Z,80.92
2023-05-05T22:30:40.151Z,80.48
2023-05-05T22:33:08.510Z,81.74
2023-05-05T22:35:38.093Z,82.44
2023-05-05T22:38:06.866Z,81.85
2023-05-05T22:40:36.045Z,82.31
2023-05-05T22:43:04.384Z,82.10
2023-05-05T22:45:33.608Z,81.99
2023-05-05T22:48:02.233Z,82.33
2023-05-05T22:50:30.575Z,83.16
2023-05-05T22:52:58.703Z,85.24
2023-05-05T22:55:27.542Z,84.56
2023-05-05T22:57:55.736Z,82.87
2023-05-05T23:00:24.323Z,82.07
2023-05-05T23:02:52.677Z,81.79
2023-05-05T23:05:21.390Z,82.22
2023-05-05T23:07:49.734Z,82.45
2023-05-05T23:10:18.327Z,83.64
2023-05-05T23:12:46.517Z,85.20
2023-05-05T23:15:15.102Z,85.62
2023-05-05T23:17:43.242Z,83.76
2023-05-05T23:20:13.339Z,83.22
2023-05-05T23:22:42.008Z,83.15
2023-05-05T23:25:10.908Z,82.70
2023-05-05T23:27:40.291Z,82.99
2023-05-05T23:30:09.457Z,83.08
2023-05-05T23:32:37.813Z,84.36
2023-05-05T23:35:07.034Z,84.08
2023-05-05T23:37:35.359Z,84.25
2023-05-05T23:40:04.960Z,86.22
2023-05-05T23:42:33.455Z,85.60
2023-05-05T23:45:01.616Z,84.77
2023-05-05T23:47:29.862Z,86.05
2023-05-05T23:49:58.272Z,86.82
2023-05-05T23:52:27.063Z,87.91
2023-05-05T23:54:55.242Z,87.37
2023-05-05T23:57:23.595Z,87.00
2023-05-05T23:59:51.817Z,87.44
